Time;durP1;ratioP1;P1;durP2;ratioP2;P2;SDS_P1;SDS_P2;PMS_P1;PMS_P2;Temp;Humidity;BMP_temperature;BMP_pressure;BME280_temperature;BME280_humidity;BME280_pressure;Samples;Min_cycle;Max_cycle;Signal;HPM_P1;HPM_P2
2023/03/18 00:02:06;;;;;;;;;;;4.40;72.50;;;;;;5007490;28;87111;-38
2023/03/18 00:04:31;;;;;;;;;;;4.40;72.40;;;;;;5012815;28;88664;-37
2023/03/18 00:06:57;;;;;;;;;;;4.40;72.60;;;;;;5007507;28;88586;-42
2023/03/18 00:09:23;;;;;;;;;;;4.40;72.50;;;;;;5004856;28;88860;-37
2023/03/18 00:11:48;;;;;;;;;;;4.40;72.30;;;;;;5003636;28;90324;-37
2023/03/18 00:14:14;;;;;;;;;;;4.40;72.30;;;;;;5009293;28;87095;-37
2023/03/18 00:16:40;;;;;;;;;;;4.40;72.40;;;;;;5021709;28;88869;-37
2023/03/18 00:19:06;;;;;;;;;;;4.40;72.50;;;;;;5021592;28;89694;-37
2023/03/18 00:21:31;;;;;;;;;;;4.40;72.40;;;;;;5020826;28;87230;-37
2023/03/18 00:23:57;;;;;;;;;;;4.40;72.30;;;;;;5018021;28;87768;-37
2023/03/18 00:26:27;;;;;;;;;;;4.40;72.40;;;;;;5004390;28;89424;-37
2023/03/18 00:28:56;;;;;;;;;;;4.30;72.20;;;;;;5017595;28;87937;-37
2023/03/18 00:31:22;;;;;;;;;;;4.30;72.20;;;;;;5018750;28;87936;-37
2023/03/18 00:33:49;;;;;;;;;;;4.30;72.50;;;;;;5019840;28;87168;-37
2023/03/18 00:36:15;;;;;;;;;;;4.30;72.30;;;;;;5014930;28;88991;-37
2023/03/18 00:38:45;;;;;;;;;;;4.30;72.30;;;;;;5005894;28;89271;-37
2023/03/18 00:41:14;;;;;;;;;;;4.30;72.90;;;;;;5012423;28;87168;-37
2023/03/18 00:43:53;;;;;;;;;;;4.30;72.40;;;;;;5013229;28;88753;-37
2023/03/18 00:46:18;;;;;;;;;;;4.30;72.20;;;;;;5019180;28;89315;-37
2023/03/18 00:48:44;;;;;;;;;;;4.30;72.40;;;;;;5024763;28;87174;-37
2023/03/18 00:51:12;;;;;;;;;;;4.30;72.30;;;;;;5021637;28;88552;-37
2023/03/18 00:53:45;;;;;;;;;;;4.30;72.30;;;;;;5004680;28;86421;-37
2023/03/18 00:56:12;;;;;;;;;;;4.20;72.40;;;;;;5011321;28;88120;-38
2023/03/18 00:58:39;;;;;;;;;;;4.20;72.90;;;;;;5018066;28;89549;-37
2023/03/18 01:01:06;;;;;;;;;;;4.30;72.40;;;;;;5017486;28;88042;-37
2023/03/18 01:03:32;;;;;;;;;;;4.20;72.40;;;;;;5022723;28;89642;-38
2023/03/18 01:05:58;;;;;;;;;;;4.20;72.10;;;;;;5007776;28;89500;-37
2023/03/18 01:08:25;;;;;;;;;;;4.20;72.20;;;;;;5019299;28;87090;-37
2023/03/18 01:10:51;;;;;;;;;;;4.20;72.10;;;;;;5020078;28;89074;-37
2023/03/18 01:13:17;;;;;;;;;;;4.20;72.50;;;;;;5006796;28;87369;-37
2023/03/18 01:15:42;;;;;;;;;;;4.20;72.30;;;;;;5006108;28;88391;-37
2023/03/18 01:18:10;;;;;;;;;;;4.20;72.40;;;;;;5004054;28;89130;-37
2023/03/18 01:20:36;;;;;;;;;;;4.20;72.20;;;;;;5003967;28;87899;-37
2023/03/18 01:23:02;;;;;;;;;;;4.10;72.20;;;;;;5003704;28;88454;-37
2023/03/18 01:25:28;;;;;;;;;;;4.20;72.40;;;;;;5007724;28;90600;-37
2023/03/18 01:27:54;;;;;;;;;;;4.10;72.40;;;;;;5014079;28;87747;-37
2023/03/18 01:30:20;;;;;;;;;;;4.10;72.20;;;;;;5003483;28;88878;-37
2023/03/18 01:32:46;;;;;;;;;;;4.10;72.20;;;;;;5004986;28;89465;-37
2023/03/18 01:35:12;;;;;;;;;;;4.10;72.00;;;;;;5003651;28;88731;-37
2023/03/18 01:37:38;;;;;;;;;;;4.10;72.20;;;;;;5003100;28;89345;-37
2023/03/18 01:40:04;;;;;;;;;;;4.10;72.10;;;;;;5005496;28;88133;-37
2023/03/18 01:42:30;;;;;;;;;;;4.10;72.20;;;;;;5015674;28;89445;-38
2023/03/18 01:45:17;;;;;;;;;;;4.10;72.20;;;;;;5018102;28;89311;-37
2023/03/18 01:47:45;;;;;;;;;;;4.10;72.30;;;;;;5005066;28;87931;-37
2023/03/18 01:50:14;;;;;;;;;;;4.00;72.20;;;;;;5019065;28;88929;-37
2023/03/18 01:52:40;;;;;;;;;;;4.00;72.10;;;;;;5018766;28;87256;-37
2023/03/18 01:55:09;;;;;;;;;;;4.10;72.00;;;;;;5022751;28;86997;-37
2023/03/18 01:57:35;;;;;;;;;;;4.00;72.10;;;;;;5006462;28;88286;-37
2023/03/18 02:00:03;;;;;;;;;;;4.00;72.10;;;;;;5003595;28;87113;-37
2023/03/18 02:02:28;;;;;;;;;;;4.00;72.10;;;;;;5004150;28;88672;-37
2023/03/18 02:04:56;;;;;;;;;;;4.00;72.80;;;;;;5002730;28;88544;-38
2023/03/18 02:07:24;;;;;;;;;;;4.00;72.00;;;;;;5003587;28;86439;-37
2023/03/18 02:09:50;;;;;;;;;;;4.00;71.90;;;;;;5002901;28;88016;-38
2023/03/18 02:12:21;;;;;;;;;;;4.00;72.20;;;;;;5008754;28;88209;-37
2023/03/18 02:14:48;;;;;;;;;;;4.00;71.90;;;;;;5002333;28;88303;-36
2023/03/18 02:17:15;;;;;;;;;;;4.00;72.10;;;;;;5005603;28;88384;-37
2023/03/18 02:19:47;;;;;;;;;;;4.00;72.00;;;;;;5002651;28;87697;-37
2023/03/18 02:22:15;;;;;;;;;;;4.00;72.00;;;;;;5005827;28;88603;-37
2023/03/18 02:24:41;;;;;;;;;;;3.90;71.90;;;;;;5013269;28;89787;-37
2023/03/18 02:27:26;;;;;;;;;;;3.90;72.10;;;;;;5002169;28;87130;-37
2023/03/18 02:29:57;;;;;;;;;;;3.90;72.20;;;;;;5002696;28;88776;-37
2023/03/18 02:32:27;;;;;;;;;;;3.90;72.10;;;;;;5019780;28;88776;-37
2023/03/18 02:34:53;;;;;;;;;;;3.90;72.20;;;;;;5017115;28;87157;-37
2023/03/18 02:37:19;;;;;;;;;;;3.90;72.10;;;;;;5020769;28;88972;-37
2023/03/18 02:39:44;;;;;;;;;;;3.90;72.10;;;;;;5016982;28;88170;-37
2023/03/18 02:42:12;;;;;;;;;;;3.90;72.10;;;;;;5019612;28;89886;-36
2023/03/18 02:44:40;;;;;;;;;;;3.80;72.00;;;;;;5021944;28;88292;-37
2023/03/18 02:47:09;;;;;;;;;;;3.80;72.00;;;;;;5024837;28;87108;-37
2023/03/18 02:49:35;;;;;;;;;;;3.80;72.20;;;;;;5024571;28;88695;-37
2023/03/18 02:52:00;;;;;;;;;;;3.80;72.10;;;;;;5026527;28;87472;-37
2023/03/18 02:54:27;;;;;;;;;;;3.80;72.00;;;;;;5024348;28;87092;-37
2023/03/18 02:56:53;;;;;;;;;;;3.80;72.10;;;;;;5025819;28;88854;-37
2023/03/18 02:59:19;;;;;;;;;;;3.80;72.10;;;;;;5026831;28;89982;-37
2023/03/18 03:01:46;;;;;;;;;;;3.80;71.90;;;;;;5023825;28;90477;-37
2023/03/18 03:04:12;;;;;;;;;;;3.80;72.10;;;;;;5020632;28;90488;-37
2023/03/18 03:06:38;;;;;;;;;;;3.80;72.00;;;;;;5023741;28;87194;-37
2023/03/18 03:09:04;;;;;;;;;;;3.80;72.10;;;;;;5019129;28;88816;-37
2023/03/18 03:11:30;;;;;;;;;;;3.70;72.00;;;;;;5008213;28;89717;-37
2023/03/18 03:13:55;;;;;;;;;;;3.70;72.20;;;;;;5009082;28;87264;-37
2023/03/18 03:16:21;;;;;;;;;;;3.70;72.00;;;;;;5023027;28;89558;-37
2023/03/18 03:18:46;;;;;;;;;;;3.70;72.10;;;;;;5008129;28;88519;-38
2023/03/18 03:21:13;;;;;;;;;;;3.70;72.00;;;;;;5011958;28;86266;-37
2023/03/18 03:23:39;;;;;;;;;;;3.70;72.00;;;;;;5017775;28;89361;-37
2023/03/18 03:26:05;;;;;;;;;;;3.70;71.90;;;;;;5014566;28;87922;-37
2023/03/18 03:28:31;;;;;;;;;;;3.70;71.90;;;;;;5023335;28;89274;-37
2023/03/18 03:30:57;;;;;;;;;;;3.70;72.00;;;;;;5022902;28;89509;-37
2023/03/18 03:33:23;;;;;;;;;;;3.60;72.00;;;;;;5024766;28;87256;-37
2023/03/18 03:35:49;;;;;;;;;;;3.60;72.10;;;;;;5014742;28;88949;-37
2023/03/18 03:38:14;;;;;;;;;;;3.60;72.10;;;;;;5008119;28;89494;-37
2023/03/18 03:40:40;;;;;;;;;;;3.60;72.00;;;;;;5008333;28;87154;-37
2023/03/18 03:43:06;;;;;;;;;;;3.60;71.90;;;;;;5026635;28;88691;-37
2023/03/18 03:45:32;;;;;;;;;;;3.60;71.80;;;;;;5023540;28;86370;-37
2023/03/18 03:47:58;;;;;;;;;;;3.60;71.90;;;;;;5010634;28;88042;-37
2023/03/18 03:50:23;;;;;;;;;;;3.60;72.10;;;;;;5013633;28;89212;-37
2023/03/18 03:52:49;;;;;;;;;;;3.60;72.20;;;;;;5020157;28;88258;-37
2023/03/18 03:55:16;;;;;;;;;;;3.60;71.90;;;;;;5004822;28;89644;-37
2023/03/18 03:57:41;;;;;;;;;;;3.50;72.40;;;;;;5011524;28;90308;-37
2023/03/18 04:00:12;;;;;;;;;;;3.50;72.00;;;;;;5020254;28;87729;-38
2023/03/18 04:02:38;;;;;;;;;;;3.50;72.10;;;;;;5016061;28;89278;-37
2023/03/18 04:05:04;;;;;;;;;;;3.50;72.20;;;;;;5007521;28;89624;-37
2023/03/18 04:07:30;;;;;;;;;;;3.50;72.10;;;;;;5005228;28;88830;-37
2023/03/18 04:09:55;;;;;;;;;;;3.50;72.00;;;;;;5004856;28;88771;-37
2023/03/18 04:12:21;;;;;;;;;;;3.50;72.10;;;;;;5004906;28;87187;-37
2023/03/18 04:14:46;;;;;;;;;;;3.50;72.10;;;;;;5004619;28;88594;-38
2023/03/18 04:17:12;;;;;;;;;;;3.40;72.20;;;;;;5003713;28;90222;-37
2023/03/18 04:19:38;;;;;;;;;;;3.50;72.10;;;;;;5004535;28;87194;-37
2023/03/18 04:22:04;;;;;;;;;;;3.50;71.90;;;;;;5004678;28;88436;-37
2023/03/18 04:24:30;;;;;;;;;;;3.50;71.90;;;;;;5004516;28;88349;-37
2023/03/18 04:26:56;;;;;;;;;;;3.40;72.00;;;;;;5007063;28;87190;-37
2023/03/18 04:29:22;;;;;;;;;;;3.40;71.80;;;;;;5019989;28;89241;-37
2023/03/18 04:31:47;;;;;;;;;;;3.40;71.80;;;;;;5020300;28;87930;-36
2023/03/18 04:34:12;;;;;;;;;;;3.50;71.80;;;;;;5020749;28;89062;-37
2023/03/18 04:36:38;;;;;;;;;;;3.40;71.80;;;;;;5016539;28;89482;-37
2023/03/18 04:39:04;;;;;;;;;;;3.40;71.90;;;;;;5008630;28;87123;-37
2023/03/18 04:41:29;;;;;;;;;;;3.40;71.80;;;;;;5004048;28;88048;-37
2023/03/18 04:43:56;;;;;;;;;;;3.40;71.90;;;;;;5020274;28;89784;-37
2023/03/18 04:46:22;;;;;;;;;;;3.30;71.70;;;;;;5014915;28;87276;-37
2023/03/18 04:48:47;;;;;;;;;;;3.30;71.90;;;;;;5016266;28;88522;-37
2023/03/18 04:51:13;;;;;;;;;;;3.40;71.80;;;;;;5016134;28;87104;-37
2023/03/18 04:53:38;;;;;;;;;;;3.40;71.80;;;;;;5004070;28;88964;-37
2023/03/18 04:56:04;;;;;;;;;;;3.30;71.70;;;;;;5004404;28;87773;-37
2023/03/18 04:58:30;;;;;;;;;;;3.20;71.90;;;;;;5004415;28;86491;-37
2023/03/18 05:00:55;;;;;;;;;;;3.20;72.00;;;;;;5004199;28;87154;-38
2023/03/18 05:03:21;;;;;;;;;;;3.20;72.00;;;;;;5008429;28;89652;-37
2023/03/18 05:05:48;;;;;;;;;;;3.20;72.00;;;;;;5003363;28;88144;-38
2023/03/18 05:08:14;;;;;;;;;;;3.20;71.90;;;;;;5013862;28;89642;-37
2023/03/18 05:10:40;;;;;;;;;;;3.20;72.00;;;;;;5003765;28;87532;-37
2023/03/18 05:13:05;;;;;;;;;;;3.20;71.80;;;;;;5003873;28;88087;-37
2023/03/18 05:15:32;;;;;;;;;;;3.20;71.80;;;;;;5003417;28;89331;-37
2023/03/18 05:17:58;;;;;;;;;;;3.20;72.10;;;;;;5004066;28;88075;-37
2023/03/18 05:20:23;;;;;;;;;;;3.30;71.80;;;;;;5004126;28;87922;-37
2023/03/18 05:22:49;;;;;;;;;;;3.20;71.60;;;;;;5003911;28;88803;-37
2023/03/18 05:25:14;;;;;;;;;;;3.20;71.70;;;;;;5003860;28;87150;-37
2023/03/18 05:27:40;;;;;;;;;;;3.20;71.80;;;;;;5003240;28;87639;-37
2023/03/18 05:30:06;;;;;;;;;;;3.10;71.80;;;;;;5017758;28;89596;-37
2023/03/18 05:32:31;;;;;;;;;;;3.20;72.00;;;;;;5020084;28;90226;-36
2023/03/18 05:34:57;;;;;;;;;;;3.10;71.80;;;;;;5012779;28;89516;-37
2023/03/18 05:37:22;;;;;;;;;;;3.20;71.90;;;;;;5020850;28;87149;-37
2023/03/18 05:39:48;;;;;;;;;;;3.10;71.80;;;;;;5006470;28;88934;-37
2023/03/18 05:42:14;;;;;;;;;;;3.20;71.80;;;;;;5006215;28;89860;-37
2023/03/18 05:44:39;;;;;;;;;;;3.10;71.80;;;;;;5020602;28;87285;-37
2023/03/18 05:47:05;;;;;;;;;;;3.20;71.70;;;;;;5021276;28;87578;-37
2023/03/18 05:49:31;;;;;;;;;;;3.10;71.70;;;;;;5018702;28;89435;-37
2023/03/18 05:51:56;;;;;;;;;;;3.20;71.60;;;;;;5006376;28;87408;-38
2023/03/18 05:54:22;;;;;;;;;;;3.20;71.60;;;;;;5015847;28;90380;-37
2023/03/18 05:56:48;;;;;;;;;;;3.10;71.50;;;;;;5017495;28;87517;-37
2023/03/18 05:59:14;;;;;;;;;;;3.10;71.60;;;;;;5005541;28;88781;-37
2023/03/18 06:01:40;;;;;;;;;;;3.10;71.60;;;;;;5002728;28;89412;-37
2023/03/18 06:04:06;;;;;;;;;;;3.10;71.70;;;;;;5003056;28;87062;-37
2023/03/18 06:06:31;;;;;;;;;;;3.10;71.60;;;;;;5003364;28;88649;-37
2023/03/18 06:08:57;;;;;;;;;;;3.10;71.70;;;;;;5002673;28;89218;-37
2023/03/18 06:11:23;;;;;;;;;;;3.10;71.50;;;;;;5003392;28;86372;-37
2023/03/18 06:13:49;;;;;;;;;;;3.10;71.70;;;;;;5005142;28;88055;-37
2023/03/18 06:16:15;;;;;;;;;;;3.10;71.60;;;;;;5002801;28;87737;-37
2023/03/18 06:18:40;;;;;;;;;;;3.00;71.70;;;;;;5018213;28;88978;-38
2023/03/18 06:21:08;;;;;;;;;;;3.00;71.70;;;;;;5019940;28;89232;-37
2023/03/18 06:23:33;;;;;;;;;;;3.00;72.30;;;;;;5019011;28;87155;-37
2023/03/18 06:25:59;;;;;;;;;;;3.00;71.70;;;;;;5018354;28;88637;-37
2023/03/18 06:28:25;;;;;;;;;;;3.10;71.80;;;;;;5016735;28;90268;-38
2023/03/18 06:30:53;;;;;;;;;;;3.00;71.80;;;;;;5016982;28;87179;-38
2023/03/18 06:33:19;;;;;;;;;;;3.00;71.80;;;;;;5019445;28;88581;-38
2023/03/18 06:35:47;;;;;;;;;;;3.00;71.90;;;;;;5022129;28;88885;-37
2023/03/18 06:38:13;;;;;;;;;;;3.00;71.90;;;;;;5018574;28;87937;-37
2023/03/18 06:40:39;;;;;;;;;;;3.00;72.00;;;;;;5002097;28;89350;-37
2023/03/18 06:43:04;;;;;;;;;;;3.00;72.10;;;;;;5001939;28;88108;-37
2023/03/18 06:45:30;;;;;;;;;;;3.00;72.20;;;;;;5011371;28;89775;-37
2023/03/18 06:47:55;;;;;;;;;;;3.00;72.20;;;;;;5018377;28;89363;-37
2023/03/18 06:50:23;;;;;;;;;;;2.90;72.20;;;;;;5012475;28;87199;-37
2023/03/18 06:52:48;;;;;;;;;;;3.00;72.20;;;;;;5019403;28;89530;-37
2023/03/18 06:55:14;;;;;;;;;;;2.90;72.20;;;;;;5022684;28;90066;-37
2023/03/18 06:57:40;;;;;;;;;;;3.00;72.20;;;;;;5016718;28;88745;-37
2023/03/18 07:00:06;;;;;;;;;;;3.00;72.00;;;;;;5002604;28;88598;-37
2023/03/18 07:02:32;;;;;;;;;;;2.90;72.30;;;;;;5019294;28;87151;-37
2023/03/18 07:04:59;;;;;;;;;;;3.00;72.30;;;;;;5018335;28;88408;-37
2023/03/18 07:07:24;;;;;;;;;;;3.00;72.20;;;;;;5005841;28;90492;-37
2023/03/18 07:09:49;;;;;;;;;;;3.00;72.10;;;;;;5018388;28;87191;-37
2023/03/18 07:12:15;;;;;;;;;;;2.90;72.20;;;;;;5018412;28;89040;-37
2023/03/18 07:14:40;;;;;;;;;;;3.00;72.20;;;;;;5016507;28;89794;-36
2023/03/18 07:17:06;;;;;;;;;;;3.00;72.20;;;;;;5005336;28;87106;-37
2023/03/18 07:19:32;;;;;;;;;;;3.00;72.20;;;;;;5002029;28;87672;-37
2023/03/18 07:21:58;;;;;;;;;;;3.00;72.20;;;;;;5002030;28;87129;-37
2023/03/18 07:24:24;;;;;;;;;;;3.00;72.20;;;;;;5008595;28;87130;-37
2023/03/18 07:26:50;;;;;;;;;;;3.00;72.30;;;;;;5011474;28;90028;-37
2023/03/18 07:29:16;;;;;;;;;;;3.00;72.30;;;;;;5002024;28;87632;-36
2023/03/18 07:31:42;;;;;;;;;;;3.00;72.40;;;;;;5015241;28;88635;-37
2023/03/18 07:34:08;;;;;;;;;;;2.90;72.40;;;;;;5021029;28;87891;-37
2023/03/18 07:36:35;;;;;;;;;;;3.00;72.40;;;;;;5022465;28;87191;-37
2023/03/18 07:39:02;;;;;;;;;;;3.00;72.20;;;;;;5008046;28;88855;-37
2023/03/18 07:41:27;;;;;;;;;;;3.00;72.20;;;;;;5005353;28;87609;-37
2023/03/18 07:43:54;;;;;;;;;;;3.00;72.20;;;;;;5005162;28;88888;-37
2023/03/18 07:46:19;;;;;;;;;;;3.00;72.40;;;;;;5004987;28;88346;-37
2023/03/18 07:48:45;;;;;;;;;;;3.00;72.50;;;;;;5006154;28;87024;-37
2023/03/18 07:51:11;;;;;;;;;;;3.00;72.40;;;;;;5004852;28;88040;-37
2023/03/18 07:53:37;;;;;;;;;;;3.00;72.60;;;;;;5017063;28;89505;-37
2023/03/18 07:56:03;;;;;;;;;;;3.00;72.70;;;;;;5004482;28;88841;-37
2023/03/18 07:58:29;;;;;;;;;;;2.90;72.70;;;;;;5004691;28;90072;-37
2023/03/18 08:00:55;;;;;;;;;;;3.00;72.70;;;;;;5024211;28;89355;-37
2023/03/18 08:03:21;;;;;;;;;;;3.00;72.60;;;;;;5021158;28;88833;-37
2023/03/18 08:05:46;;;;;;;;;;;3.00;72.60;;;;;;5022111;28;89217;-37
2023/03/18 08:08:12;;;;;;;;;;;3.10;72.70;;;;;;5021663;28;87396;-37
2023/03/18 08:10:37;;;;;;;;;;;3.10;72.70;;;;;;5021712;28;87280;-37
2023/03/18 08:13:03;;;;;;;;;;;3.10;72.70;;;;;;5022051;28;88641;-37
2023/03/18 08:15:28;;;;;;;;;;;3.10;72.70;;;;;;5020391;28;87074;-37
2023/03/18 08:17:54;;;;;;;;;;;3.10;72.70;;;;;;5011472;28;88667;-37
2023/03/18 08:20:20;;;;;;;;;;;3.10;72.80;;;;;;5019101;28;91928;-37
2023/03/18 08:22:46;;;;;;;;;;;3.10;73.00;;;;;;5016249;28;87089;-37
2023/03/18 08:25:12;;;;;;;;;;;3.10;73.00;;;;;;5019841;28;89101;-36
2023/03/18 08:27:37;;;;;;;;;;;3.10;73.10;;;;;;5018697;28;87110;-37
2023/03/18 08:30:05;;;;;;;;;;;3.00;73.10;;;;;;5022090;28;87111;-37
2023/03/18 08:32:31;;;;;;;;;;;3.10;73.10;;;;;;5019969;28;89588;-38
2023/03/18 08:34:57;;;;;;;;;;;3.10;73.00;;;;;;5018853;28;87082;-37
2023/03/18 08:37:22;;;;;;;;;;;3.10;73.10;;;;;;5013153;28;88834;-37
2023/03/18 08:39:48;;;;;;;;;;;3.10;72.90;;;;;;5011978;28;88084;-37
2023/03/18 08:42:13;;;;;;;;;;;3.10;73.00;;;;;;5018527;28;87202;-37
2023/03/18 08:44:39;;;;;;;;;;;3.10;72.90;;;;;;5022802;28;88904;-36
2023/03/18 08:47:05;;;;;;;;;;;3.10;72.90;;;;;;5019017;28;87559;-37
2023/03/18 08:49:31;;;;;;;;;;;3.10;73.10;;;;;;5008733;28;89183;-37
2023/03/18 08:51:56;;;;;;;;;;;3.10;73.10;;;;;;5003720;28;89343;-37
2023/03/18 08:54:22;;;;;;;;;;;3.10;73.20;;;;;;5004242;28;87185;-37
2023/03/18 08:56:47;;;;;;;;;;;3.10;73.20;;;;;;5004143;28;88845;-37
2023/03/18 08:59:13;;;;;;;;;;;3.10;73.30;;;;;;5003780;28;87841;-37
2023/03/18 09:01:39;;;;;;;;;;;3.10;73.20;;;;;;5004456;28;86660;-37
2023/03/18 09:04:05;;;;;;;;;;;3.20;73.20;;;;;;5006600;28;87938;-37
2023/03/18 09:06:31;;;;;;;;;;;3.10;73.20;;;;;;5004378;28;87242;-37
2023/03/18 09:08:57;;;;;;;;;;;3.20;73.30;;;;;;5018575;28;88793;-36
2023/03/18 09:11:23;;;;;;;;;;;3.20;73.20;;;;;;5012288;28;88428;-37
2023/03/18 09:13:48;;;;;;;;;;;3.10;73.20;;;;;;5015912;28;87096;-37
2023/03/18 09:16:14;;;;;;;;;;;3.20;73.30;;;;;;5017428;28;87081;-37
2023/03/18 09:18:40;;;;;;;;;;;3.20;73.20;;;;;;5011870;28;88720;-37
2023/03/18 09:21:06;;;;;;;;;;;3.20;73.00;;;;;;5009018;28;87187;-37
2023/03/18 09:23:33;;;;;;;;;;;3.20;73.10;;;;;;5006878;28;87270;-37
2023/03/18 09:25:58;;;;;;;;;;;3.30;72.80;;;;;;5007953;28;89349;-37
2023/03/18 09:28:24;;;;;;;;;;;3.40;72.70;;;;;;5012793;28;87291;-37
2023/03/18 09:30:50;;;;;;;;;;;3.30;72.80;;;;;;5006043;28;89581;-37
2023/03/18 09:33:15;;;;;;;;;;;3.30;72.80;;;;;;5010675;28;88175;-37
2023/03/18 09:35:41;;;;;;;;;;;3.40;72.80;;;;;;5005314;28;89687;-37
2023/03/18 09:38:07;;;;;;;;;;;3.40;72.70;;;;;;5010095;28;89679;-37
2023/03/18 09:40:34;;;;;;;;;;;3.50;72.60;;;;;;5011560;28;87279;-37
2023/03/18 09:43:16;;;;;;;;;;;3.40;72.40;;;;;;5007724;28;89115;-37
2023/03/18 09:45:45;;;;;;;;;;;3.40;72.50;;;;;;5007020;28;88090;-37
2023/03/18 09:48:11;;;;;;;;;;;3.40;72.40;;;;;;5006183;28;87260;-37
2023/03/18 09:50:40;;;;;;;;;;;3.40;72.30;;;;;;5005159;28;87524;-37
2023/03/18 09:53:18;;;;;;;;;;;3.40;72.30;;;;;;5012124;28;87387;-37
2023/03/18 09:55:46;;;;;;;;;;;3.50;72.30;;;;;;5008001;28;88720;-37
2023/03/18 09:58:21;;;;;;;;;;;3.50;72.00;;;;;;5002430;28;89207;-37
2023/03/18 10:00:48;;;;;;;;;;;3.50;72.40;;;;;;5008772;28;87815;-37
2023/03/18 10:03:30;;;;;;;;;;;3.50;72.50;;;;;;5005270;28;88881;-38
2023/03/18 10:05:58;;;;;;;;;;;3.50;71.80;;;;;;5004097;28;89304;-37
2023/03/18 10:08:27;;;;;;;;;;;3.50;72.10;;;;;;5003837;28;87281;-37
2023/03/18 10:10:53;;;;;;;;;;;3.50;72.40;;;;;;5012595;28;88573;-37
2023/03/18 10:13:21;;;;;;;;;;;3.60;72.00;;;;;;5003188;28;87146;-37
2023/03/18 10:15:55;;;;;;;;;;;3.50;72.00;;;;;;5005632;28;89086;-37
2023/03/18 10:18:25;;;;;;;;;;;3.60;71.80;;;;;;5005077;28;90082;-37
2023/03/18 10:20:59;;;;;;;;;;;3.60;71.80;;;;;;5006631;28;87525;-37
2023/03/18 10:23:28;;;;;;;;;;;3.60;71.20;;;;;;5003200;28;89024;-37
2023/03/18 10:25:56;;;;;;;;;;;3.60;71.90;;;;;;5005459;28;88117;-37
2023/03/18 10:28:24;;;;;;;;;;;3.70;72.30;;;;;;5007249;28;87230;-38
2023/03/18 10:30:56;;;;;;;;;;;3.60;71.60;;;;;;5003767;28;87243;-37
2023/03/18 10:33:25;;;;;;;;;;;3.70;72.30;;;;;;5012737;28;88194;-37
2023/03/18 10:35:57;;;;;;;;;;;3.80;71.60;;;;;;5004635;28;88420;-37
2023/03/18 10:38:24;;;;;;;;;;;3.80;71.30;;;;;;5002892;28;88100;-37
2023/03/18 10:40:50;;;;;;;;;;;3.80;71.40;;;;;;5003551;28;86547;-37
2023/03/18 10:43:18;;;;;;;;;;;3.80;71.60;;;;;;5015082;28;87097;-36
2023/03/18 10:45:45;;;;;;;;;;;3.80;70.60;;;;;;5009673;28;89480;-37
2023/03/18 10:48:26;;;;;;;;;;;3.80;70.80;;;;;;5007157;28;88134;-37
2023/03/18 10:51:04;;;;;;;;;;;3.80;71.30;;;;;;5002775;28;88487;-37
2023/03/18 10:53:33;;;;;;;;;;;3.90;70.70;;;;;;5016133;28;89667;-37
2023/03/18 10:56:03;;;;;;;;;;;3.90;71.40;;;;;;5005040;28;87663;-37
2023/03/18 10:58:29;;;;;;;;;;;3.90;71.00;;;;;;5002252;28;89076;-37
2023/03/18 11:00:55;;;;;;;;;;;4.00;70.80;;;;;;5002344;28;87151;-37
2023/03/18 11:03:26;;;;;;;;;;;3.90;71.30;;;;;;5006526;28;89286;-37
2023/03/18 11:05:53;;;;;;;;;;;4.00;71.60;;;;;;5017889;28;88614;-36
2023/03/18 11:08:33;;;;;;;;;;;4.00;70.90;;;;;;5021392;28;87214;-38
2023/03/18 11:11:02;;;;;;;;;;;4.00;70.90;;;;;;5016428;28;88213;-37
2023/03/18 11:13:28;;;;;;;;;;;4.10;70.60;;;;;;5005114;28;90881;-37
2023/03/18 11:15:55;;;;;;;;;;;4.10;71.10;;;;;;5015708;28;87249;-37
2023/03/18 11:18:22;;;;;;;;;;;4.10;71.00;;;;;;5015911;28;88164;-37
2023/03/18 11:20:58;;;;;;;;;;;4.10;70.50;;;;;;5008479;28;88082;-37
2023/03/18 11:23:55;;;;;;;;;;;4.20;70.30;;;;;;5013986;28;89320;-37
2023/03/18 11:26:21;;;;;;;;;;;4.20;70.50;;;;;;5016195;28;88665;-37
2023/03/18 11:28:47;;;;;;;;;;;4.20;70.80;;;;;;5007322;28;87148;-37
2023/03/18 11:31:17;;;;;;;;;;;4.30;71.40;;;;;;5007659;28;88992;-36
2023/03/18 11:33:43;;;;;;;;;;;4.30;70.80;;;;;;5005360;28;89845;-37
2023/03/18 11:36:14;;;;;;;;;;;4.30;71.20;;;;;;5006609;28;87783;-37
2023/03/18 11:38:41;;;;;;;;;;;4.40;70.40;;;;;;5008595;28;89312;-37
2023/03/18 11:41:08;;;;;;;;;;;4.40;70.90;;;;;;5008175;28;87160;-37
2023/03/18 11:43:35;;;;;;;;;;;4.40;70.50;;;;;;5006678;28;88675;-37
2023/03/18 11:46:03;;;;;;;;;;;4.40;69.80;;;;;;5007531;28;88307;-37
2023/03/18 11:48:30;;;;;;;;;;;4.50;69.30;;;;;;5007709;28;87179;-37
2023/03/18 11:51:05;;;;;;;;;;;4.50;68.80;;;;;;5007303;28;88633;-38
2023/03/18 11:53:33;;;;;;;;;;;4.50;69.30;;;;;;5006205;28;89309;-37
2023/03/18 11:56:22;;;;;;;;;;;4.50;69.40;;;;;;5006929;28;86515;-37
2023/03/18 11:58:51;;;;;;;;;;;4.50;70.30;;;;;;5000890;28;87776;-37
2023/03/18 12:01:25;;;;;;;;;;;4.50;69.90;;;;;;5024144;28;89230;-37
2023/03/18 12:04:12;;;;;;;;;;;4.50;71.10;;;;;;5012383;28;88698;-37
2023/03/18 12:06:58;;;;;;;;;;;4.60;71.00;;;;;;5020958;28;89290;-37
2023/03/18 12:09:28;;;;;;;;;;;4.60;70.60;;;;;;5016581;28;87993;-37
2023/03/18 12:12:06;;;;;;;;;;;4.60;70.90;;;;;;5004874;28;88392;-37
2023/03/18 12:14:44;;;;;;;;;;;4.60;70.40;;;;;;5009272;28;88234;-37
2023/03/18 12:17:13;;;;;;;;;;;4.60;70.40;;;;;;5020930;28;87721;-37
2023/03/18 12:19:38;;;;;;;;;;;4.70;70.30;;;;;;5020923;28;87842;-37
2023/03/18 12:22:07;;;;;;;;;;;4.70;70.50;;;;;;5020575;28;88707;-37
2023/03/18 12:24:51;;;;;;;;;;;4.70;70.40;;;;;;5008753;28;87283;-37
2023/03/18 12:27:16;;;;;;;;;;;4.70;70.40;;;;;;5014404;28;88549;-37
2023/03/18 12:29:45;;;;;;;;;;;4.70;70.40;;;;;;5012726;28;88155;-37
2023/03/18 12:32:20;;;;;;;;;;;4.80;70.70;;;;;;5010876;28;89732;-37
2023/03/18 12:34:51;;;;;;;;;;;4.80;70.80;;;;;;5013510;28;89432;-37
2023/03/18 12:37:20;;;;;;;;;;;4.80;69.70;;;;;;5006034;28;87227;-37
2023/03/18 12:39:46;;;;;;;;;;;4.80;69.40;;;;;;5014173;28;88590;-37
2023/03/18 12:42:24;;;;;;;;;;;4.90;70.10;;;;;;5016225;28;88327;-37
2023/03/18 12:44:49;;;;;;;;;;;4.80;68.60;;;;;;5010975;28;88224;-37
2023/03/18 12:47:21;;;;;;;;;;;4.90;68.60;;;;;;5007227;28;88936;-38
2023/03/18 12:49:51;;;;;;;;;;;4.90;68.10;;;;;;5017263;28;87387;-37
2023/03/18 12:52:20;;;;;;;;;;;4.90;69.00;;;;;;5019535;28;88830;-37
2023/03/18 12:54:49;;;;;;;;;;;4.90;68.40;;;;;;5013098;28;90235;-37
2023/03/18 12:57:19;;;;;;;;;;;5.00;67.90;;;;;;5012955;28;88014;-37
2023/03/18 12:59:48;;;;;;;;;;;5.00;68.20;;;;;;5007255;28;92162;-38
2023/03/18 13:02:13;;;;;;;;;;;5.00;68.10;;;;;;5011665;28;89503;-38
2023/03/18 13:04:41;;;;;;;;;;;5.00;67.90;;;;;;5010824;28;87273;-38
2023/03/18 13:07:14;;;;;;;;;;;5.10;67.50;;;;;;5010996;28;87283;-37
2023/03/18 13:09:46;;;;;;;;;;;5.10;67.40;;;;;;5009812;28;87168;-37
2023/03/18 13:12:16;;;;;;;;;;;5.10;67.00;;;;;;5004849;28;89450;-37
2023/03/18 13:14:49;;;;;;;;;;;5.10;67.50;;;;;;5003561;28;90818;-37
2023/03/18 13:17:38;;;;;;;;;;;5.10;67.80;;;;;;5012500;28;87252;-37
2023/03/18 13:20:13;;;;;;;;;;;5.10;66.90;;;;;;4997451;28;88770;-37
2023/03/18 13:22:41;;;;;;;;;;;5.20;67.80;;;;;;5014010;28;89378;-37
2023/03/18 13:25:07;;;;;;;;;;;5.20;67.30;;;;;;5007565;28;87997;-38
2023/03/18 13:27:48;;;;;;;;;;;5.20;67.50;;;;;;5008482;28;88554;-38
2023/03/18 13:30:14;;;;;;;;;;;5.20;68.20;;;;;;5008531;28;89504;-37
2023/03/18 13:32:53;;;;;;;;;;;5.20;67.10;;;;;;5004139;28;88432;-38
2023/03/18 13:35:25;;;;;;;;;;;5.20;67.70;;;;;;5009310;28;89376;-38
2023/03/18 13:37:54;;;;;;;;;;;5.30;68.20;;;;;;5012448;28;86479;-37
2023/03/18 13:40:27;;;;;;;;;;;5.30;68.50;;;;;;5003645;28;88095;-37
2023/03/18 13:42:58;;;;;;;;;;;5.30;68.20;;;;;;5003247;28;88430;-37
2023/03/18 13:45:28;;;;;;;;;;;5.40;67.60;;;;;;5014031;28;88074;-37
2023/03/18 13:47:56;;;;;;;;;;;5.40;68.60;;;;;;5016673;28;89878;-37
2023/03/18 13:50:31;;;;;;;;;;;5.50;69.20;;;;;;5012305;28;89501;-38
2023/03/18 13:52:58;;;;;;;;;;;5.40;69.10;;;;;;5006784;28;87181;-37
2023/03/18 13:55:26;;;;;;;;;;;5.50;68.70;;;;;;5008505;28;89599;-37
2023/03/18 13:58:12;;;;;;;;;;;5.50;68.80;;;;;;5003389;28;87694;-37
2023/03/18 14:00:39;;;;;;;;;;;5.50;68.90;;;;;;4999564;28;89078;-37
2023/03/18 14:03:05;;;;;;;;;;;5.60;68.70;;;;;;5016613;28;87372;-37
2023/03/18 14:05:30;;;;;;;;;;;5.60;68.70;;;;;;5017818;28;87659;-37
2023/03/18 14:07:56;;;;;;;;;;;5.60;69.00;;;;;;5017334;28;88695;-37
2023/03/18 14:10:22;;;;;;;;;;;5.60;68.90;;;;;;5004626;28;89135;-37
2023/03/18 14:12:48;;;;;;;;;;;5.70;68.80;;;;;;5019413;28;87801;-37
2023/03/18 14:15:13;;;;;;;;;;;5.80;68.80;;;;;;5019045;28;87854;-37
2023/03/18 14:17:45;;;;;;;;;;;5.80;68.80;;;;;;5005903;28;87098;-37
2023/03/18 14:20:15;;;;;;;;;;;5.80;68.70;;;;;;5015538;28;87943;-37
2023/03/18 14:22:41;;;;;;;;;;;5.80;68.70;;;;;;5014893;28;89625;-37
2023/03/18 14:25:09;;;;;;;;;;;5.80;68.80;;;;;;5015364;28;88692;-37
2023/03/18 14:27:53;;;;;;;;;;;5.90;68.70;;;;;;5010599;28;88640;-38
2023/03/18 14:30:28;;;;;;;;;;;5.90;68.50;;;;;;5004657;28;89341;-37
2023/03/18 14:32:58;;;;;;;;;;;5.90;68.70;;;;;;5012465;28;87227;-37
2023/03/18 14:35:28;;;;;;;;;;;5.90;68.50;;;;;;5008116;28;88777;-37